createdAt,value
2019-05-05T00:01:50.596Z,2.41
2019-05-05T00:04:39.856Z,2.37
2019-05-05T00:07:06.892Z,2.33
2019-05-05T00:09:34.776Z,2.32
2019-05-05T00:12:28.492Z,2.27
2019-05-05T00:15:18.934Z,2.21
2019-05-05T00:17:45.881Z,2.19
2019-05-05T00:20:14.474Z,2.14
2019-05-05T00:22:41.598Z,2.12
2019-05-05T00:25:08.767Z,2.05
2019-05-05T00:27:35.827Z,2.04
2019-05-05T00:30:05.280Z,2.04
2019-05-05T00:32:34.877Z,2.08
2019-05-05T00:35:04.229Z,2.11
2019-05-05T00:37:30.932Z,2.09
2019-05-05T00:39:57.992Z,2.16
2019-05-05T00:42:25.019Z,2.18
2019-05-05T00:44:51.961Z,2.22
2019-05-05T00:47:45.541Z,2.27
2019-05-05T00:50:16.271Z,2.28
2019-05-05T00:52:44.523Z,2.28
2019-05-05T00:55:11.931Z,2.23
2019-05-05T00:57:39.004Z,2.22
2019-05-05T01:00:15.202Z,2.23
2019-05-05T01:02:45.671Z,2.22
2019-05-05T01:05:27.424Z,2.20
2019-05-05T01:07:56.175Z,2.14
2019-05-05T01:10:24.815Z,2.19
2019-05-05T01:12:51.959Z,2.21
2019-05-05T01:15:19.311Z,2.19
2019-05-05T01:17:46.311Z,2.20
2019-05-05T01:20:14.682Z,2.25
2019-05-05T01:22:41.760Z,2.28
2019-05-05T01:25:09.006Z,2.30
2019-05-05T01:27:35.988Z,2.31
2019-05-05T01:30:04.869Z,2.31
2019-05-05T01:32:36.183Z,2.31
2019-05-05T01:35:05.387Z,2.26
2019-05-05T01:37:38.108Z,2.26
2019-05-05T01:40:25.708Z,2.27
2019-05-05T01:42:54.751Z,2.25
2019-05-05T01:45:21.819Z,2.22
2019-05-05T01:47:49.277Z,2.12
2019-05-05T01:50:20.995Z,2.04
2019-05-05T01:52:45.211Z,2.02
2019-05-05T01:55:14.529Z,2.01
2019-05-05T01:57:41.493Z,1.99
2019-05-05T02:00:08.833Z,1.98
2019-05-05T02:02:36.139Z,1.98
2019-05-05T02:05:04.593Z,1.94
2019-05-05T02:07:31.779Z,1.95
2019-05-05T02:09:58.750Z,2.04
2019-05-05T02:12:25.866Z,2.05
2019-05-05T02:14:54.949Z,2.04
2019-05-05T02:17:21.748Z,2.01
2019-05-05T02:19:48.720Z,1.93
2019-05-05T02:22:15.725Z,1.88
2019-05-05T02:24:44.408Z,1.84
2019-05-05T02:27:11.675Z,1.80
2019-05-05T02:29:49.980Z,1.78
2019-05-05T02:32:36.136Z,1.75
2019-05-05T02:35:06.687Z,1.71
2019-05-05T02:37:35.711Z,1.69
2019-05-05T02:40:07.243Z,1.75
2019-05-05T02:42:32.069Z,1.82
2019-05-05T02:45:05.385Z,1.80
2019-05-05T02:47:55.199Z,1.79
2019-05-05T02:50:25.132Z,1.79
2019-05-05T02:52:53.851Z,1.79
2019-05-05T02:55:23.481Z,1.86
2019-05-05T02:57:50.813Z,1.87
2019-05-05T03:00:45.383Z,1.88
2019-05-05T03:03:14.699Z,1.91
2019-05-05T03:05:43.450Z,1.96
2019-05-05T03:11:44.433Z,2.01
2019-05-05T03:14:14.311Z,1.98
2019-05-05T03:16:43.525Z,1.96
2019-05-05T03:19:10.850Z,1.97
2019-05-05T03:21:38.516Z,1.95
2019-05-05T03:24:11.911Z,1.91
2019-05-05T03:26:39.703Z,2.02
2019-05-05T03:29:13.733Z,2.03
2019-05-05T03:31:40.605Z,2.04
2019-05-05T03:34:08.281Z,2.08
2019-05-05T03:36:35.375Z,2.15
2019-05-05T03:39:05.190Z,2.17
2019-05-05T03:41:45.239Z,2.17
2019-05-05T03:44:24.904Z,2.23
2019-05-05T03:46:54.380Z,2.29
2019-05-05T03:49:21.836Z,2.35
2019-05-05T03:51:48.844Z,2.40
2019-05-05T03:54:15.913Z,2.42
2019-05-05T03:56:44.180Z,2.41
2019-05-05T03:59:11.282Z,2.43
2019-05-05T04:01:45.188Z,2.50
2019-05-05T04:04:28.164Z,2.58
2019-05-05T04:06:55.195Z,2.64
2019-05-05T04:09:24.245Z,2.67
2019-05-05T04:11:51.404Z,2.73
2019-05-05T04:14:18.709Z,2.79
2019-05-05T04:17:05.378Z,2.84
2019-05-05T04:19:35.095Z,2.90
2019-05-05T04:22:04.102Z,2.96
2019-05-05T04:24:31.018Z,3.02
2019-05-05T04:26:58.147Z,3.04
2019-05-05T04:29:25.103Z,3.11
2019-05-05T04:31:53.984Z,3.18
2019-05-05T04:34:20.964Z,3.24
2019-05-05T04:36:47.931Z,3.29
2019-05-05T04:39:14.883Z,3.32
2019-05-05T04:41:43.919Z,3.37
2019-05-05T04:44:11.042Z,3.42
2019-05-05T04:46:37.984Z,3.47
2019-05-05T04:49:17.895Z,3.53
2019-05-05T04:51:50.030Z,3.60
2019-05-05T04:54:29.683Z,3.68
2019-05-05T04:56:56.666Z,3.73
2019-05-05T04:59:23.741Z,3.84
2019-05-05T05:01:54.711Z,3.92
2019-05-05T05:04:50.432Z,4.02
2019-05-05T05:07:18.199Z,4.14
2019-05-05T05:09:45.174Z,4.25
2019-05-05T05:12:14.505Z,4.32
2019-05-05T05:14:41.203Z,4.39
2019-05-05T05:17:14.119Z,4.37
2019-05-05T05:19:41.291Z,4.36
2019-05-05T05:22:08.263Z,4.38
2019-05-05T05:24:35.224Z,4.40
2019-05-05T05:27:02.198Z,4.47
2019-05-05T05:29:29.156Z,4.55
2019-05-05T05:31:56.116Z,4.65
2019-05-05T05:34:23.913Z,4.77
2019-05-05T05:36:51.073Z,4.83
2019-05-05T05:39:35.220Z,4.88
2019-05-05T05:43:04.681Z,4.95
2019-05-05T05:46:09.351Z,5.02
2019-05-05T05:48:49.416Z,5.06
2019-05-05T05:51:19.431Z,5.04
2019-05-05T05:53:46.557Z,5.11
2019-05-05T05:56:13.635Z,5.18
2019-05-05T05:58:40.745Z,5.25
2019-05-05T06:01:07.796Z,5.29
2019-05-05T06:03:34.866Z,5.29
2019-05-05T06:06:01.872Z,5.32
2019-05-05T06:08:30.038Z,5.37
2019-05-05T06:10:57.154Z,5.44
2019-05-05T06:13:24.338Z,5.49
2019-05-05T06:15:53.420Z,5.55
2019-05-05T06:18:20.355Z,5.62
2019-05-05T06:20:59.425Z,5.72
2019-05-05T06:23:26.575Z,5.70
2019-05-05T06:25:55.084Z,5.71
2019-05-05T06:28:23.705Z,5.71
2019-05-05T06:30:51.032Z,5.81
2019-05-05T06:33:18.042Z,6.01
2019-05-05T06:35:45.026Z,6.33
2019-05-05T06:38:13.664Z,6.64
2019-05-05T06:41:06.586Z,6.87
2019-05-05T06:43:59.093Z,7.08
2019-05-05T06:46:29.058Z,7.37
2019-05-05T06:49:34.649Z,7.52
2019-05-05T06:52:03.860Z,7.67
2019-05-05T06:54:30.727Z,7.66
2019-05-05T06:56:57.779Z,7.63
2019-05-05T06:59:24.825Z,7.75
2019-05-05T07:01:53.576Z,7.80
2019-05-05T07:04:20.702Z,7.86
2019-05-05T07:06:54.011Z,8.05
2019-05-05T07:09:16.727Z,8.18
2019-05-05T07:11:43.808Z,8.30
2019-05-05T07:14:10.779Z,8.41
2019-05-05T07:16:37.792Z,8.47
2019-05-05T07:19:04.793Z,8.52
2019-05-05T07:21:34.142Z,8.50
2019-05-05T07:24:00.739Z,8.57
2019-05-05T07:26:27.717Z,8.69
2019-05-05T07:28:54.729Z,8.80
2019-05-05T07:31:23.680Z,8.88
2019-05-05T07:33:50.574Z,8.94
2019-05-05T07:36:51.216Z,8.89
2019-05-05T07:39:18.159Z,8.99
2019-05-05T07:41:45.334Z,8.98
2019-05-05T07:44:25.060Z,9.04
2019-05-05T07:46:41.209Z,9.05
2019-05-05T07:49:08.284Z,9.06
2019-05-05T07:51:35.274Z,9.09
2019-05-05T07:54:03.925Z,9.04
2019-05-05T07:56:31.060Z,8.97
2019-05-05T07:58:58.048Z,9.18
2019-05-05T08:01:25.035Z,9.33
2019-05-05T08:03:53.853Z,9.36
2019-05-05T08:06:20.904Z,9.32
2019-05-05T08:08:47.971Z,9.21
2019-05-05T08:11:14.975Z,9.19
2019-05-05T08:13:44.137Z,9.16
2019-05-05T08:16:24.145Z,9.15
2019-05-05T08:19:07.180Z,9.14
2019-05-05T08:21:34.727Z,9.08
2019-05-05T08:24:14.081Z,9.12
2019-05-05T08:27:00.787Z,9.35
2019-05-05T08:29:34.705Z,9.50
2019-05-05T08:32:20.367Z,9.74
2019-05-05T08:34:57.278Z,9.80
2019-05-05T08:37:16.184Z,9.86
2019-05-05T08:39:44.702Z,9.81
2019-05-05T08:42:11.821Z,9.76
2019-05-05T08:44:38.790Z,9.78
2019-05-05T08:47:07.610Z,9.82
2019-05-05T08:49:34.845Z,9.82
2019-05-05T08:52:03.940Z,9.84
2019-05-05T08:54:30.805Z,9.69
2019-05-05T08:56:57.768Z,9.56
2019-05-05T08:59:24.734Z,9.60
2019-05-05T09:01:54.105Z,9.73
2019-05-05T09:04:21.331Z,9.68
2019-05-05T09:06:48.701Z,9.66
2019-05-05T09:09:16.870Z,9.60
2019-05-05T09:11:44.027Z,9.59
2019-05-05T09:14:11.052Z,9.42
2019-05-05T09:16:38.059Z,9.45
2019-05-05T09:19:11.953Z,9.62
2019-05-05T09:21:38.977Z,9.75
2019-05-05T09:24:30.410Z,9.84
2019-05-05T09:27:03.645Z,9.63
2019-05-05T09:29:34.698Z,9.63
2019-05-05T09:32:04.079Z,9.89
2019-05-05T09:34:31.545Z,10.00
2019-05-05T09:36:58.634Z,9.93
2019-05-05T09:39:25.579Z,9.70
2019-05-05T09:41:53.607Z,9.30
2019-05-05T09:44:20.761Z,8.81
2019-05-05T09:46:48.816Z,8.30
2019-05-05T09:49:15.763Z,7.69
2019-05-05T09:51:43.962Z,7.36
2019-05-05T09:54:14.487Z,7.32
2019-05-05T09:56:40.048Z,7.45
2019-05-05T09:59:07.042Z,7.61
2019-05-05T10:01:34.017Z,7.81
2019-05-05T10:04:07.784Z,7.94
2019-05-05T10:06:35.330Z,8.05
2019-05-05T10:09:02.291Z,8.13
2019-05-05T10:11:29.242Z,8.33
2019-05-05T10:13:56.227Z,8.50
2019-05-05T10:16:23.580Z,8.48
2019-05-05T10:18:50.644Z,8.66
2019-05-05T10:21:17.942Z,8.82
2019-05-05T10:23:47.176Z,8.90
2019-05-05T10:26:14.937Z,8.95
2019-05-05T10:28:44.347Z,8.99
2019-05-05T10:31:11.067Z,9.35
2019-05-05T10:33:41.928Z,9.71
2019-05-05T10:36:08.922Z,9.79
2019-05-05T10:38:37.803Z,9.74
2019-05-05T10:41:04.776Z,9.87
2019-05-05T10:43:31.791Z,10.13
2019-05-05T10:45:58.781Z,10.45
2019-05-05T10:48:26.878Z,10.48
2019-05-05T10:50:53.930Z,10.45
2019-05-05T10:53:20.877Z,10.68
2019-05-05T10:55:47.925Z,10.78
2019-05-05T10:58:14.937Z,10.83
2019-05-05T11:00:47.776Z,10.75
2019-05-05T11:03:15.343Z,10.71
2019-05-05T11:05:44.873Z,10.77
2019-05-05T11:08:13.672Z,10.88
2019-05-05T11:10:40.808Z,10.82
2019-05-05T11:13:07.863Z,10.86
2019-05-05T11:15:34.873Z,11.12
2019-05-05T11:18:03.994Z,11.45
2019-05-05T11:20:31.117Z,11.45
2019-05-05T11:22:59.730Z,11.70
2019-05-05T11:25:26.725Z,11.70
2019-05-05T11:27:55.302Z,12.06
2019-05-05T11:30:33.995Z,12.38
2019-05-05T11:33:34.458Z,12.13
2019-05-05T11:36:30.376Z,11.62
2019-05-05T11:38:57.346Z,11.13
2019-05-05T11:41:24.561Z,10.57
2019-05-05T11:43:53.338Z,9.54
2019-05-05T11:46:20.392Z,8.89
2019-05-05T11:48:47.405Z,8.60
2019-05-05T11:51:15.135Z,8.50
2019-05-05T11:53:44.522Z,8.40
2019-05-05T11:56:11.163Z,8.38
2019-05-05T11:58:38.123Z,8.36
2019-05-05T12:01:06.865Z,8.44
2019-05-05T12:03:34.157Z,8.68
2019-05-05T12:06:01.253Z,8.91
2019-05-05T12:08:28.216Z,9.32
2019-05-05T12:10:59.378Z,9.85
2019-05-05T12:13:26.357Z,10.79
2019-05-05T12:15:58.661Z,11.73
2019-05-05T12:18:25.682Z,12.49
2019-05-05T12:20:54.373Z,12.41
2019-05-05T12:23:23.953Z,12.86
2019-05-05T12:26:09.245Z,12.70
2019-05-05T12:28:41.132Z,12.27
2019-05-05T12:31:14.156Z,12.05
2019-05-05T12:33:41.240Z,11.65
2019-05-05T12:36:08.538Z,11.22
2019-05-05T12:38:35.596Z,10.97
2019-05-05T12:41:04.348Z,10.80
2019-05-05T12:43:33.867Z,10.58
2019-05-05T12:46:08.310Z,10.65
2019-05-05T12:48:35.807Z,10.74
2019-05-05T12:51:04.179Z,10.75
2019-05-05T12:53:31.314Z,10.95
2019-05-05T12:55:58.271Z,11.07
2019-05-05T12:58:25.258Z,11.12
2019-05-05T13:01:03.802Z,11.07
2019-05-05T13:03:31.131Z,10.97
2019-05-05T13:05:58.189Z,10.87
2019-05-05T13:08:25.156Z,10.74
2019-05-05T13:10:53.441Z,10.79
2019-05-05T13:13:20.484Z,10.61
2019-05-05T13:15:47.506Z,10.39
2019-05-05T13:18:14.531Z,10.24
2019-05-05T13:20:58.112Z,10.13
2019-05-05T13:23:44.727Z,10.18
2019-05-05T13:26:34.168Z,10.30
2019-05-05T13:29:01.130Z,10.48
2019-05-05T13:31:28.103Z,10.47
2019-05-05T13:33:55.128Z,10.56
2019-05-05T13:36:24.128Z,10.64
2019-05-05T13:38:52.101Z,10.96
2019-05-05T13:41:20.006Z,11.41
2019-05-05T13:43:47.002Z,12.49
2019-05-05T13:46:20.392Z,13.25
2019-05-05T13:48:47.421Z,13.22
2019-05-05T13:51:14.894Z,12.94
2019-05-05T13:53:41.984Z,12.72
2019-05-05T13:56:12.322Z,12.50
2019-05-05T13:58:37.971Z,12.08
2019-05-05T14:01:06.027Z,11.70
2019-05-05T14:03:40.393Z,11.26
2019-05-05T14:06:07.345Z,11.07
2019-05-05T14:08:36.326Z,11.07
2019-05-05T14:11:03.747Z,11.16
2019-05-05T14:13:34.164Z,11.15
2019-05-05T14:16:01.251Z,11.40
2019-05-05T14:18:28.269Z,12.28
2019-05-05T14:20:55.873Z,12.43
2019-05-05T14:23:24.016Z,12.26
2019-05-05T14:25:51.248Z,12.07
2019-05-05T14:28:18.378Z,11.85
2019-05-05T14:31:14.284Z,11.74
2019-05-05T14:33:49.713Z,11.53
2019-05-05T14:36:44.136Z,11.00
2019-05-05T14:39:12.137Z,10.49
2019-05-05T14:41:39.122Z,9.85
2019-05-05T14:44:06.075Z,9.29
2019-05-05T14:46:34.220Z,8.97
2019-05-05T14:49:05.585Z,8.70
2019-05-05T14:51:34.010Z,8.48
2019-05-05T14:57:33.595Z,8.33
2019-05-05T15:00:00.780Z,8.25
2019-05-05T15:02:37.009Z,8.19
2019-05-05T15:05:24.470Z,8.20
2019-05-05T15:08:04.657Z,8.22
2019-05-05T15:10:50.629Z,8.32
2019-05-05T15:13:17.958Z,8.49
2019-05-05T15:15:45.138Z,8.63
2019-05-05T15:18:12.115Z,8.83
2019-05-05T15:20:39.264Z,9.01
2019-05-05T15:23:06.237Z,9.21
2019-05-05T15:25:34.133Z,9.32
2019-05-05T15:28:01.437Z,9.41
2019-05-05T15:30:28.387Z,9.57
2019-05-05T15:32:58.630Z,9.76
2019-05-05T15:36:04.360Z,9.88
2019-05-05T15:38:31.481Z,9.87
2019-05-05T15:40:58.544Z,9.92
2019-05-05T15:43:28.471Z,9.91
2019-05-05T15:45:55.445Z,10.01
2019-05-05T15:48:22.509Z,10.11
2019-05-05T15:50:50.731Z,10.10
2019-05-05T15:53:17.695Z,10.11
2019-05-05T15:55:44.717Z,10.18
2019-05-05T15:58:14.005Z,10.26
2019-05-05T16:00:44.206Z,10.43
2019-05-05T16:03:13.448Z,10.64
2019-05-05T16:05:40.102Z,11.05
2019-05-05T16:08:07.279Z,11.23
2019-05-05T16:10:34.801Z,11.18
2019-05-05T16:13:01.882Z,11.13
2019-05-05T16:15:51.025Z,11.06
2019-05-05T16:18:26.364Z,11.06
2019-05-05T16:21:04.681Z,11.02
2019-05-05T16:23:36.058Z,10.94
2019-05-05T16:26:04.840Z,10.82
2019-05-05T16:28:50.062Z,10.72
2019-05-05T16:31:17.276Z,10.66
2019-05-05T16:33:44.278Z,10.66
2019-05-05T16:36:11.365Z,10.61
2019-05-05T16:38:38.609Z,10.53
2019-05-05T16:41:05.601Z,10.42
2019-05-05T16:43:33.743Z,10.28
2019-05-05T16:46:01.610Z,10.12
2019-05-05T16:48:28.579Z,10.06
2019-05-05T16:50:55.577Z,10.03
2019-05-05T16:53:35.566Z,9.97
2019-05-05T16:56:04.488Z,9.91
2019-05-05T16:58:33.443Z,9.89
2019-05-05T17:01:00.412Z,9.87
2019-05-05T17:03:27.481Z,9.84
2019-05-05T17:05:55.610Z,9.84
2019-05-05T17:08:24.451Z,9.84
2019-05-05T17:10:51.685Z,9.85
2019-05-05T17:13:33.502Z,9.89
2019-05-05T17:16:14.875Z,9.87
2019-05-05T17:18:56.736Z,9.86
2019-05-05T17:21:28.788Z,9.83
2019-05-05T17:23:55.784Z,9.82
2019-05-05T17:26:24.327Z,9.82
2019-05-05T17:28:51.391Z,9.77
2019-05-05T17:31:18.452Z,9.58
2019-05-05T17:33:45.696Z,9.48
2019-05-05T17:36:14.938Z,9.41
2019-05-05T17:38:43.759Z,9.36
2019-05-05T17:41:28.739Z,9.34
2019-05-05T17:44:05.185Z,9.35
2019-05-05T17:46:53.950Z,9.33
2019-05-05T17:49:51.637Z,9.42
2019-05-05T17:52:27.596Z,9.54
2019-05-05T17:54:56.899Z,9.69
2019-05-05T17:57:28.107Z,9.86
2019-05-05T17:59:55.287Z,9.95
2019-05-05T18:02:23.668Z,9.99
2019-05-05T18:04:50.920Z,10.00
2019-05-05T18:07:26.234Z,9.96
2019-05-05T18:10:28.237Z,9.88
2019-05-05T18:13:35.052Z,9.66
2019-05-05T18:16:04.575Z,9.49
2019-05-05T18:18:31.714Z,9.24
2019-05-05T18:21:04.388Z,9.12
2019-05-05T18:23:31.610Z,8.97
2019-05-05T18:25:58.570Z,8.85
2019-05-05T18:28:27.638Z,8.71
2019-05-05T18:30:54.649Z,8.63
2019-05-05T18:33:34.071Z,8.49
2019-05-05T18:36:01.009Z,8.38
2019-05-05T18:38:28.087Z,8.28
2019-05-05T18:41:06.447Z,8.24
2019-05-05T18:43:40.113Z,8.22
2019-05-05T18:46:07.363Z,8.11
2019-05-05T18:48:34.952Z,7.96
2019-05-05T18:51:03.847Z,7.86
2019-05-05T18:53:30.835Z,7.78
2019-05-05T18:55:57.969Z,7.68
2019-05-05T18:58:28.968Z,7.59
2019-05-05T19:01:13.535Z,7.53
2019-05-05T19:03:58.923Z,7.45
2019-05-05T19:06:44.527Z,7.33
2019-05-05T19:09:15.287Z,7.23
2019-05-05T19:11:43.598Z,7.13
2019-05-05T19:14:14.210Z,7.08
2019-05-05T19:16:41.357Z,6.95
2019-05-05T19:19:08.336Z,6.80
2019-05-05T19:21:38.676Z,6.68
2019-05-05T19:24:07.142Z,6.54
2019-05-05T19:26:34.150Z,6.46
2019-05-05T19:29:04.391Z,6.34
2019-05-05T19:31:32.049Z,6.26
2019-05-05T19:33:59.998Z,6.18
2019-05-05T19:36:27.523Z,6.18
2019-05-05T19:38:54.924Z,6.16
2019-05-05T19:41:23.816Z,6.13
2019-05-05T19:43:54.921Z,6.08
2019-05-05T19:46:27.143Z,6.12
2019-05-05T19:49:14.759Z,6.15
2019-05-05T19:51:44.668Z,6.21
2019-05-05T19:54:14.201Z,6.13
2019-05-05T19:56:40.822Z,6.14
2019-05-05T19:59:08.248Z,6.12
2019-05-05T20:01:37.834Z,6.09
2019-05-05T20:04:04.988Z,6.11
2019-05-05T20:06:32.133Z,6.12
2019-05-05T20:08:59.231Z,6.10
2019-05-05T20:11:29.499Z,6.09
2019-05-05T20:14:06.637Z,6.04
2019-05-05T20:16:34.145Z,6.01
2019-05-05T20:19:01.303Z,6.00
2019-05-05T20:21:28.860Z,6.00
2019-05-05T20:23:57.825Z,5.95
2019-05-05T20:26:25.477Z,5.93
2019-05-05T20:28:55.321Z,5.93
2019-05-05T20:31:21.385Z,5.89
2019-05-05T20:33:59.161Z,5.78
2019-05-05T20:36:26.862Z,5.69
2019-05-05T20:39:49.150Z,5.55
2019-05-05T20:42:17.215Z,5.38
2019-05-05T20:44:44.224Z,5.28
2019-05-05T20:47:11.257Z,5.18
2019-05-05T20:49:38.350Z,5.08
2019-05-05T20:52:05.494Z,4.97
2019-05-05T20:54:32.541Z,4.88
2019-05-05T20:56:59.674Z,4.79
2019-05-05T20:59:30.691Z,4.69
2019-05-05T21:01:57.493Z,4.61
2019-05-05T21:05:17.592Z,4.55
2019-05-05T21:07:45.496Z,4.50
2019-05-05T21:10:14.332Z,4.57
2019-05-05T21:12:42.626Z,4.52
2019-05-05T21:15:13.013Z,4.45
2019-05-05T21:17:59.542Z,4.39
2019-05-05T21:20:26.680Z,4.37
2019-05-05T21:23:05.189Z,4.31
2019-05-05T21:25:34.825Z,4.24
2019-05-05T21:28:03.371Z,4.22
2019-05-05T21:30:33.695Z,4.20
2019-05-05T21:33:01.372Z,4.15
2019-05-05T21:35:28.718Z,4.11
2019-05-05T21:37:55.818Z,4.10
2019-05-05T21:40:25.052Z,4.07
2019-05-05T21:42:54.206Z,4.02
2019-05-05T21:45:21.045Z,3.99
2019-05-05T21:47:48.090Z,3.96
2019-05-05T21:50:17.919Z,3.92
2019-05-05T21:52:49.662Z,3.91
2019-05-05T21:55:39.247Z,3.88
2019-05-05T21:58:25.360Z,3.85
2019-05-05T22:01:18.451Z,3.81
2019-05-05T22:04:05.032Z,3.72
2019-05-05T22:06:33.663Z,3.60
2019-05-05T22:09:03.914Z,3.58
2019-05-05T22:11:30.721Z,3.58
2019-05-05T22:17:29.832Z,3.53
2019-05-05T22:20:04.668Z,3.46
2019-05-05T22:22:36.387Z,3.42
2019-05-05T22:25:14.066Z,3.42
2019-05-05T22:27:40.861Z,3.37
2019-05-05T22:30:10.439Z,3.31
2019-05-05T22:32:37.029Z,3.28
2019-05-05T22:35:04.584Z,3.27
2019-05-05T22:37:31.745Z,3.24
2019-05-05T22:39:58.836Z,3.20
2019-05-05T22:42:25.944Z,3.19
2019-05-05T22:44:52.903Z,3.19
2019-05-05T22:47:20.040Z,3.19
2019-05-05T22:49:47.162Z,3.18
2019-05-05T22:52:14.572Z,3.17
2019-05-05T22:54:41.612Z,3.14
2019-05-05T22:57:50.043Z,3.14
2019-05-05T23:00:26.565Z,3.12
2019-05-05T23:03:33.428Z,3.09
2019-05-05T23:06:04.457Z,3.13
2019-05-05T23:08:34.882Z,3.08
2019-05-05T23:11:03.895Z,3.05
2019-05-05T23:13:30.799Z,3.04
2019-05-05T23:16:11.402Z,3.04
2019-05-05T23:18:38.594Z,3.03
2019-05-05T23:21:15.817Z,3.00
2019-05-05T23:23:51.665Z,3.00
2019-05-05T23:26:19.795Z,2.98
2019-05-05T23:28:46.869Z,2.93
2019-05-05T23:31:16.038Z,2.89
2019-05-05T23:33:43.964Z,2.88
2019-05-05T23:36:30.642Z,2.84
2019-05-05T23:38:57.591Z,2.82
2019-05-05T23:41:24.749Z,2.78
2019-05-05T23:43:54.286Z,2.71
2019-05-05T23:46:34.792Z,2.69
2019-05-05T23:49:04.129Z,2.68
2019-05-05T23:51:31.066Z,2.67
2019-05-05T23:53:58.023Z,2.63
2019-05-05T23:56:26.838Z,2.58
2019-05-05T23:58:54.854Z,2.56
